Terminal Aerodrome Forecast
Issued by NWS Wilmington, OH

Current Version | Previous Version | Text Only | Print | Product List | Glossary On
Versions: 1 2 3 4 5 6 7 8 9 10 11 12 13 14 15 16 17 18 19 20 21
738
FTUS41 KILN 300541
TAFILN
TAF
KILN 300541Z 3006/3106 09009KT P6SM BKN200
     FM301300 14012KT P6SM OVC100
     FM301600 17013G22KT P6SM VCSH BKN060
     FM310200 18012KT 5SM -TSRA BR OVC035CB
     FM310500 18010KT 5SM -SHRA BR VCTS OVC025CB=

USA.gov is the U.S. government's official web portal to all federal, state and local government web resources and services.